Anza Borrego Desert Research Center, California Weather observations

Data are for 10 minute period ending at time listed.
 Day   Time   Solar   Ave.   Ave.  Ave.  Vector  Max.   Baro.   Total    
  of    of     Rad.   Air    Rel.  Wind   Wind   Wind  Press.  Precip.   
Year   Day            Temp.  Hum.  Speed  Dir.   Gust                    
2015   (PST)  Kw/m2    F      %     mph   deg.    mph    mb.     in.     
-------------------------------------------------------------------------
 141   17:10   0.27   71.7    31   12.8   244    23.5   501.8    0.00 
 141   17:20   0.23   71.7    32    8.4   263    15.4   501.8    0.00 
 141   17:30   0.17   71.1    32    9.4   246    16.7   501.8    0.00 
 141   17:40   0.03   69.2    34    8.9   239    16.9   501.8    0.00 
 141   17:50   0.03   68.1    36    9.4   251    24.3   501.8    0.00 
 141   18:00   0.02   67.7    36    7.5   251    24.2   501.8    0.00 
 141   18:10   0.01   66.9    38    4.7   287    10.7   501.8    0.00 
 141   18:20   0.01   66.8    38    6.0   288     9.9   501.8    0.00 
 141   18:30   0.01   66.5    39    4.1   304    10.2   501.8    0.00 
 141   18:40   0.00   66.3    39    9.0   269    17.8   501.8    0.00 
 141   18:50   0.00   66.3    38    6.4   296    13.0   501.8    0.00 
 141   19:00   0.00   66.0    39    5.7   322    11.8   501.8    0.00 
 141   19:10   0.00   65.8    39    1.5    91     4.5   501.8    0.00 
 141   19:20   0.00   65.4    39    4.3   325    12.6   501.8    0.00 
 141   19:30   0.00   65.5    39    5.4   339    10.8   501.8    0.00 
 141   19:40   0.00   65.0    40    4.2   279     9.2   501.8    0.00 
 141   19:50   0.00   64.8    39    8.4   245    18.4   501.8    0.00 
 141   20:00   0.00   64.5    40    6.1   328    16.1   501.8    0.00 
 141   20:10   0.00   64.1    41    5.3   339    11.5   501.8    0.00 
 141   20:20   0.00   64.2    41    4.5   319     9.6   501.8    0.00 
 141   20:30   0.00   63.8    42    3.3    46     5.8   501.8    0.00 
 141   20:40   0.00   63.7    42    3.5     9     7.2   501.8    0.00 
 141   20:50   0.00   63.2    42    4.0   353     9.5   501.8    0.00 
 141   21:00   0.00   63.2    44    4.8   337     9.0   501.8    0.00 
 141   21:10   0.00   63.3    42    4.5   359     9.1   501.8    0.00 
 141   21:20   0.00   63.1    43    2.3    32     4.2   501.8    0.00 
 141   21:30   0.00   62.6    43    3.4    80     5.9   501.8    0.00 
 141   21:40   0.00   62.3    44    3.9    11     6.8   501.8    0.00 
 141   21:50   0.00   62.3    44    6.0     5    10.4   501.8    0.00 
 141   22:00   0.00   62.4    44    5.1   341    10.2   501.8    0.00 
 141   22:10   0.00   62.3    45    4.1   302     9.7   501.8    0.00 
 141   22:20   0.00   61.9    46    3.1   307     6.9   501.8    0.00 
 141   22:30   0.00   61.6    46    6.6   335    10.6   501.8    0.00 
 141   22:40   0.00   61.9    46    4.6   337    11.8   501.7    0.00 
 141   22:50   0.00   61.5    46    3.2    10     5.9   501.7    0.00 
 141   23:00   0.00   61.1    46    3.4   296     4.7   501.7    0.00 
 141   23:10   0.00   60.7    47    4.7   237     8.4   501.7    0.00 
 141   23:20   0.00   61.1    47    5.5   228    11.5   501.7    0.00 
 141   23:30   0.00   61.1    46    5.5   342    10.0   501.7    0.00 
 141   23:40   0.00   60.2    48    1.3   224     3.9   501.7    0.00 
 141   23:50   0.00   60.2    48    2.3    69     5.6   501.7    0.00 
 142    0:00   0.00   59.7    48    3.7   136     6.6   501.7    0.00 
 142    0:10   0.00   60.3    48    4.6   360     8.3   501.7    0.00 
 142    0:20   0.00   60.4    48    8.0     3    15.8   501.7    0.00 
 142    0:30   0.00   61.2    46    6.5   240    12.5   501.7    0.00 
 142    0:40   0.00   60.0    48    5.8   147    10.4   501.7    0.00 
 142    0:50   0.00   60.4    47    8.7    75    13.1   501.7    0.00 
 142    1:00   0.00   59.2    50    8.3    46    11.2   501.7    0.00 
 142    1:10   0.00   59.9    48    5.8    28     8.7   501.7    0.00 
 142    1:20   0.00   59.7    48    4.9    42     8.6   501.7    0.00 
 142    1:30   0.00   58.8    49    1.8    90     3.9   501.7    0.00 
 142    1:40   0.00   58.4    49    5.6    49     7.8   501.7    0.00 
 142    1:50   0.00   58.5    49    4.2    54     7.1   501.7    0.00 
 142    2:00   0.00   58.1    50    3.5   102     6.1   501.7    0.00 
 142    2:10   0.00   56.6    52    3.1   175     4.6   501.6    0.00 
 142    2:20   0.00   56.5    52    2.6   135     5.9   501.6    0.00 
 142    2:30   0.00   56.4    52    3.1   223     6.9   501.6    0.00 
 142    2:40   0.00   58.3    49    4.5    95    11.2   501.6    0.00 
 142    2:50   0.00   59.8    47    6.7    97    12.6   501.6    0.00 
 142    3:00   0.00   59.7    47    3.1    96     6.5   501.7    0.00 
 142    3:10   0.00   58.7    48    2.2    90     3.2   501.7    0.00 
 142    3:20   0.00   58.4    50    3.3    16     5.5   501.7    0.00 
 142    3:30   0.00   58.8    49    2.5   288     3.8   501.7    0.00 
 142    3:40   0.00   58.9    50    3.2   296     4.6   501.7    0.00 
 142    3:50   0.00   58.6    50    5.6   182     7.7   501.7    0.00 
 142    4:00   0.00   59.4    53   10.2   226    17.4   501.7    0.00 
 142    4:10   0.00   60.1    52    5.0   227    11.8   501.7    0.00 
 142    4:20   0.00   60.4    51    7.7   226    16.8   501.7    0.00 
 142    4:30   0.00   60.2    51    9.1   236    20.4   501.7    0.00 
 142    4:40   0.00   60.2    50    8.2   216    27.2   501.7    0.00 
 142    4:50   0.00   60.7    49    6.2   245    11.8   501.7    0.00 
 142    5:00   0.02   60.8    48    2.4   275     6.8   501.7    0.00 
 142    5:10   0.05   61.4    48    4.3   181     9.8   501.7    0.00 
 142    5:20   0.07   61.7    48    4.3   196     6.4   501.7    0.00 
 142    5:30   0.08   62.9    46    2.5   152     6.2   501.8    0.00 
 142    5:40   0.06   62.5    46    3.1    72     4.5   501.8    0.00 
 142    5:50   0.06   61.7    46    4.6    58     8.3   501.8    0.00 
 142    6:00   0.06   62.0    45    3.3    56     7.4   501.8    0.00 
 142    6:10   0.12   61.7    45    7.7   343    15.3   501.8    0.00 
 142    6:20   0.31   63.0    44    5.7   332    11.2   501.8    0.00 
 142    6:30   0.29   64.0    43    7.8   355    17.2   501.8    0.00 
 142    6:40   0.28   64.2    42    6.3   354    10.9   501.8    0.00 
 142    6:50   0.43   64.3    41    8.8   333    13.1   501.8    0.00 
 142    7:00   0.45   65.7    39    5.8   303    10.8   501.8    0.00 
 142    7:10   0.36   64.7    40    9.6   341    18.6   501.8    0.00 
 142    7:20   0.36   64.1    42    8.2   327    14.3   501.8    0.00 
 142    7:30   0.56   65.3    40    5.6   344    13.3   501.8    0.00 
 142    7:40   0.64   66.2    38    9.7   354    18.6   501.8    0.00 
 142    7:50   0.63   66.3    38    6.3   340    12.9   501.8    0.00 
 142    8:00   0.56   66.1    38    7.5   297    15.9   501.8    0.00 
 142    8:10   0.62   66.4    37    4.9     0    12.9   501.8    0.00 
 142    8:20   0.64   66.8    37    3.4    15     6.4   501.8    0.00 
 142    8:30   0.70   68.2    35    4.1   109     7.8   501.8    0.00 
 142    8:40   0.75   68.3    35    5.9   118    10.2   501.8    0.00 
 142    8:50   0.57   67.9    36    3.7    12     8.5   501.8    0.00 
 142    9:00   0.69   67.9    36   12.7   210    20.8   501.8    0.00 
 142    9:10   0.62   67.5    37   10.6   227    28.6   501.8    0.00 
 142    9:20   0.82   67.5    37    8.1   227    16.7   501.8    0.00 
 142    9:30   0.84   69.5    34    5.3   201    12.1   501.8    0.00 
 142    9:40   0.89   70.1    34    4.9   245    15.3   501.8    0.00 
 142    9:50   0.86   69.6    35    6.7   322    16.4   501.8    0.00 
 142   10:00   0.91   70.2    35    7.0   304    17.0   501.8    0.00 
 142   10:10   0.96   69.1    36    6.9   310    12.0   501.8    0.00 
 142   10:20   0.97   69.6    36   10.3   331    23.8   501.8    0.00 
 142   10:30   0.98   70.9    34    6.0   295    16.4   501.8    0.00 
 142   10:40   1.02   70.7    34   11.9   247    23.5   501.8    0.00 
 142   10:50   0.94   70.7    34   12.3   232    21.7   501.8    0.00 
 142   11:00   1.04   70.0    34   14.9   227    26.7   501.8    0.00 
 142   11:10   1.04   70.6    34   13.9   226    30.4   501.8    0.00 
 142   11:20   1.03   71.1    33   13.3   264    28.4   501.8    0.00 
 142   11:30   1.04   70.8    32   13.4   262    27.2   501.8    0.00 
 142   11:40   1.03   71.5    32    8.2   261    29.5   501.8    0.00 
 142   11:50   0.93   70.7    35   17.7   281    29.5   501.8    0.00 
 142   12:00   1.01   69.8    38   21.2   239    32.4   501.8    0.00 
 142   12:10   0.72   69.4    38   23.9   234    33.6   501.8    0.00 
 142   12:20   0.83   69.1    38   23.1   236    33.0   501.8    0.00 
 142   12:30   0.83   68.7    40   23.3   234    35.4   501.8    0.00 
 142   12:40   0.43   68.3    39   17.8   246    32.8   501.8    0.00 
 142   12:50   0.84   68.5    40   24.0   230    36.0   501.8    0.00 
 142   13:00   0.89   68.6    40   21.9   232    33.5   501.8    0.00 
 142   13:10   1.04   69.8    38   19.2   243    28.9   501.8    0.00 
 142   13:20   1.01   69.7    39   16.2   243    22.9   501.8    0.00 
 142   13:30   0.83   70.2    38   15.2   239    24.7   501.8    0.00 
 142   13:40   0.84   69.6    38   15.3   265    28.5   501.8    0.00 
 142   13:50   0.95   70.4    38   15.3   240    24.8   501.8    0.00 
 142   14:00   0.90   69.7    38   14.4   260    25.7   501.8    0.00 
 142   14:10   0.94   69.8    38   16.5   268    31.4   501.8    0.00 
 142   14:20   0.93   70.5    37   11.5   301    28.3   501.8    0.00 
 142   14:30   0.79   70.5    36   12.6   342    21.1   501.8    0.00 
 142   14:40   0.61   70.1    37    8.0   306    15.3   501.8    0.00 
 142   14:50   0.78   70.2    37    6.7     6    19.5   501.8    0.00 
 142   15:00   0.41   69.4    38   11.7   356    22.8   501.8    0.00 
 142   15:10   0.72   68.8    40    8.4   239    20.5   501.8    0.00 
 142   15:20   0.77   69.7    40    6.2   224    21.0   501.8    0.00 
 142   15:30   0.72   70.4    39    3.0   288    10.2   501.8    0.00 
 142   15:40   0.68   69.5    40   13.1   199    28.1   501.8    0.00 
 142   15:50   0.63   69.2    40    7.3   206    14.5   501.8    0.00 
 142   16:00   0.50   70.0    39    6.2   175    11.1   501.8    0.00 
 142   16:10   0.32   69.1    40    3.1   180     8.3   501.8    0.00 
 142   16:20   0.28   68.9    39    5.6   301    13.4   501.8    0.00 
 142   16:30   0.48   69.8    38    4.5   197    11.5   501.8    0.00 
 142   16:40   0.44   70.6    37    3.0   237     6.6   501.8    0.00 
 142   16:50   0.37   70.0    38    5.8   349    11.9   501.8    0.00 
 142   17:00   0.33   68.2    40   10.5   338    17.8   501.8    0.00 

Return to Anza Borrego Desert Research Center graphs page.


Western Regional Climate Center,wrcc@dri.edu